createdAt,value
2023-12-02T00:01:02.600Z,6.90
2023-12-02T00:03:30.247Z,6.47
2023-12-02T00:05:57.856Z,5.82
2023-12-02T00:08:26.850Z,6.20
2023-12-02T00:10:54.402Z,5.47
2023-12-02T00:13:22.009Z,6.15
2023-12-02T00:15:49.583Z,5.72
2023-12-02T00:18:17.282Z,8.63
2023-12-02T00:20:44.975Z,7.80
2023-12-02T00:23:12.539Z,6.95
2023-12-02T00:25:41.490Z,5.47
2023-12-02T00:28:09.122Z,6.82
2023-12-02T00:30:36.789Z,7.05
2023-12-02T00:33:04.476Z,7.07
2023-12-02T00:35:32.056Z,7.80
2023-12-02T00:37:59.717Z,5.63
2023-12-02T00:40:27.337Z,5.68
2023-12-02T00:42:56.246Z,6.68
2023-12-02T00:45:23.907Z,5.90
2023-12-02T00:47:51.557Z,6.45
2023-12-02T00:50:19.184Z,7.20
2023-12-02T00:52:46.789Z,5.70
2023-12-02T00:55:14.384Z,6.53
2023-12-02T00:57:41.933Z,6.60
2023-12-02T01:00:11.656Z,7.32
2023-12-02T01:02:39.245Z,6.03
2023-12-02T01:05:07.193Z,6.60
2023-12-02T01:07:34.823Z,6.85
2023-12-02T01:10:02.481Z,6.37
2023-12-02T01:12:30.101Z,6.38
2023-12-02T01:14:57.776Z,8.18
2023-12-02T01:17:26.723Z,6.05
2023-12-02T01:19:54.337Z,5.55
2023-12-02T01:22:21.950Z,7.03
2023-12-02T01:24:49.561Z,8.18
2023-12-02T01:27:17.803Z,6.38
2023-12-02T01:29:49.486Z,5.97
2023-12-02T01:32:18.580Z,6.38
2023-12-02T01:34:47.524Z,6.20
2023-12-02T01:37:15.113Z,6.25
2023-12-02T01:39:42.712Z,5.82
2023-12-02T01:42:10.366Z,6.80
2023-12-02T01:44:37.934Z,5.25
2023-12-02T01:47:05.728Z,9.97
2023-12-02T01:49:34.160Z,7.20
2023-12-02T01:52:04.020Z,7.30
2023-12-02T01:54:31.737Z,6.13
2023-12-02T01:56:59.416Z,5.85
2023-12-02T01:59:27.067Z,6.50
2023-12-02T02:01:54.698Z,5.88
2023-12-02T02:04:22.485Z,6.18
2023-12-02T02:06:50.809Z,6.93
2023-12-02T02:09:19.790Z,6.55
2023-12-02T02:11:49.967Z,7.53
2023-12-02T02:14:17.626Z,5.15
2023-12-02T02:16:45.207Z,5.13
2023-12-02T02:19:12.959Z,5.18
2023-12-02T02:21:41.947Z,4.65
2023-12-02T02:24:09.875Z,4.97
2023-12-02T02:26:37.469Z,5.97
2023-12-02T02:29:05.111Z,4.85
2023-12-02T02:31:32.690Z,5.13
2023-12-02T02:34:00.259Z,5.32
2023-12-02T02:36:27.858Z,8.00
2023-12-02T02:38:56.856Z,5.50
2023-12-02T02:41:24.431Z,5.93
2023-12-02T02:43:52.056Z,4.60
2023-12-02T02:46:19.636Z,6.35
2023-12-02T02:48:47.248Z,4.77
2023-12-02T02:51:14.905Z,4.25
2023-12-02T02:53:42.497Z,6.07
2023-12-02T02:56:12.022Z,8.15
2023-12-02T02:58:39.615Z,4.38
2023-12-02T03:01:07.825Z,5.13
2023-12-02T03:03:35.394Z,4.22
2023-12-02T03:06:03.025Z,5.28
2023-12-02T03:08:30.650Z,5.20
2023-12-02T03:10:58.215Z,5.35
2023-12-02T03:13:27.170Z,5.33
2023-12-02T03:15:54.736Z,4.93
2023-12-02T03:18:22.561Z,6.68
2023-12-02T03:20:50.297Z,6.45
2023-12-02T03:23:17.946Z,7.28
2023-12-02T03:25:45.733Z,4.87
2023-12-02T03:28:13.783Z,4.95
2023-12-02T03:30:42.782Z,4.90
2023-12-02T03:33:10.548Z,4.13
2023-12-02T03:35:38.179Z,4.80
2023-12-02T03:38:05.732Z,6.07
2023-12-02T03:40:33.309Z,4.03
2023-12-02T03:43:01.133Z,3.78
2023-12-02T03:45:28.752Z,4.63
2023-12-02T03:47:57.871Z,5.88
2023-12-02T03:50:25.695Z,4.73
2023-12-02T03:52:53.314Z,4.60
2023-12-02T03:55:20.868Z,4.03
2023-12-02T03:57:48.474Z,4.85
2023-12-02T04:00:16.583Z,4.70
2023-12-02T04:02:44.140Z,5.57
2023-12-02T04:05:14.659Z,4.95
2023-12-02T04:07:42.705Z,5.05
2023-12-02T04:10:10.928Z,6.40
2023-12-02T04:12:38.541Z,4.75
2023-12-02T04:15:07.585Z,5.30
2023-12-02T04:17:35.329Z,5.05
2023-12-02T04:20:09.663Z,5.00
2023-12-02T04:22:40.113Z,22.80
2023-12-02T04:25:08.281Z,5.68
2023-12-02T04:27:36.442Z,5.63
2023-12-02T04:30:05.304Z,5.32
2023-12-02T04:32:33.208Z,5.50
2023-12-02T04:35:00.807Z,4.38
2023-12-02T04:37:28.404Z,5.95
2023-12-02T04:39:57.460Z,4.53
2023-12-02T04:42:25.024Z,5.32
2023-12-02T04:44:52.621Z,6.13
2023-12-02T04:47:20.163Z,4.93
2023-12-02T04:49:47.809Z,5.25
2023-12-02T04:52:15.467Z,4.10
2023-12-02T04:54:43.008Z,6.93
2023-12-02T04:57:12.325Z,5.22
2023-12-02T04:59:39.905Z,4.93
2023-12-02T05:02:07.546Z,5.20
2023-12-02T05:04:35.522Z,6.33
2023-12-02T05:07:03.196Z,5.07
2023-12-02T05:09:30.814Z,4.32
2023-12-02T05:11:58.508Z,4.30
2023-12-02T05:14:27.465Z,7.85
2023-12-02T05:16:55.032Z,4.37
2023-12-02T05:19:23.052Z,5.13
2023-12-02T05:21:50.716Z,4.65
2023-12-02T05:24:20.322Z,5.78
2023-12-02T05:26:47.943Z,5.65
2023-12-02T05:29:16.040Z,8.00
2023-12-02T05:31:44.982Z,5.47
2023-12-02T05:34:12.830Z,5.22
2023-12-02T05:36:40.526Z,4.55
2023-12-02T05:39:08.531Z,5.10
2023-12-02T05:41:36.098Z,4.70
2023-12-02T05:44:03.809Z,4.78
2023-12-02T05:46:31.379Z,5.63
2023-12-02T05:49:00.413Z,4.15
2023-12-02T05:51:28.113Z,4.68
2023-12-02T05:53:55.721Z,3.87
2023-12-02T05:56:23.324Z,4.18
2023-12-02T05:58:50.910Z,4.20
2023-12-02T06:01:21.076Z,4.80
2023-12-02T06:03:48.777Z,5.88
2023-12-02T06:06:17.882Z,4.30
2023-12-02T06:08:45.628Z,4.50
2023-12-02T06:11:13.197Z,4.07
2023-12-02T06:13:40.841Z,4.30
2023-12-02T06:16:08.689Z,4.10
2023-12-02T06:18:36.404Z,3.90
2023-12-02T06:21:04.225Z,5.65
2023-12-02T06:23:33.370Z,4.68
2023-12-02T06:26:00.947Z,4.75
2023-12-02T06:28:28.494Z,6.05
2023-12-02T06:30:56.464Z,4.37
2023-12-02T06:33:24.114Z,4.97
2023-12-02T06:35:51.735Z,7.55
2023-12-02T06:38:19.366Z,6.68
2023-12-02T06:40:48.426Z,7.07
2023-12-02T06:43:16.046Z,5.10
2023-12-02T06:45:43.825Z,6.95
2023-12-02T06:48:11.513Z,5.10
2023-12-02T06:50:39.357Z,4.97
2023-12-02T06:53:07.954Z,5.15
2023-12-02T06:55:35.513Z,5.40
2023-12-02T06:58:04.558Z,5.80
2023-12-02T07:00:32.256Z,4.68
2023-12-02T07:03:00.649Z,4.53
2023-12-02T07:05:28.282Z,5.63
2023-12-02T07:07:55.837Z,7.13
2023-12-02T07:10:23.523Z,5.10
2023-12-02T07:12:51.064Z,4.82
2023-12-02T07:15:20.068Z,10.25
2023-12-02T07:17:47.665Z,5.90
2023-12-02T07:20:16.824Z,6.47
2023-12-02T07:22:44.445Z,5.97
2023-12-02T07:25:12.050Z,6.05
2023-12-02T07:27:39.619Z,7.32
2023-12-02T07:32:39.803Z,5.23
2023-12-02T07:35:08.143Z,5.05
2023-12-02T07:37:35.793Z,5.43
2023-12-02T07:40:03.359Z,8.90
2023-12-02T07:42:31.033Z,6.75
2023-12-02T07:44:58.635Z,10.97
2023-12-02T07:47:26.517Z,5.65
2023-12-02T07:49:55.646Z,7.45
2023-12-02T07:52:23.361Z,6.88
2023-12-02T07:54:50.957Z,6.28
2023-12-02T07:57:18.530Z,6.93
2023-12-02T07:59:46.124Z,8.25
2023-12-02T08:02:13.722Z,5.95
2023-12-02T08:04:41.348Z,5.60
2023-12-02T08:07:10.304Z,6.28
2023-12-02T08:09:37.864Z,6.90
2023-12-02T08:12:05.801Z,6.72
2023-12-02T08:14:33.387Z,6.85
2023-12-02T08:17:00.953Z,5.68
2023-12-02T08:19:28.563Z,6.45
2023-12-02T08:21:56.305Z,6.53
2023-12-02T08:24:25.233Z,6.00
2023-12-02T08:26:52.936Z,6.78
2023-12-02T08:29:20.501Z,9.23
2023-12-02T08:31:48.061Z,6.90
2023-12-02T08:34:16.530Z,5.97
2023-12-02T08:36:44.252Z,8.63
2023-12-02T08:39:11.902Z,6.80
2023-12-02T08:41:40.879Z,9.23
2023-12-02T08:44:09.763Z,5.57
2023-12-02T08:46:38.869Z,6.43
2023-12-02T08:49:06.512Z,7.93
2023-12-02T08:51:34.086Z,6.35
2023-12-02T08:54:02.710Z,7.22
2023-12-02T08:56:30.550Z,9.50
2023-12-02T08:59:00.417Z,6.33
2023-12-02T09:01:28.334Z,7.22
2023-12-02T09:03:56.026Z,7.30
2023-12-02T09:06:23.606Z,5.47
2023-12-02T09:08:51.550Z,6.35
2023-12-02T09:11:19.294Z,5.77
2023-12-02T09:13:48.569Z,6.35
2023-12-02T09:16:20.376Z,5.85
2023-12-02T09:18:48.356Z,6.60
2023-12-02T09:21:48.970Z,6.78
2023-12-02T09:24:35.984Z,7.40
2023-12-02T09:27:06.777Z,9.02
2023-12-02T09:29:36.738Z,8.73
2023-12-02T09:32:10.090Z,8.07
2023-12-02T09:34:53.040Z,6.45
2023-12-02T09:37:37.155Z,9.02
2023-12-02T09:40:30.995Z,9.15
2023-12-02T09:43:04.222Z,7.75
2023-12-02T09:45:36.637Z,8.00
2023-12-02T09:48:08.773Z,8.88
2023-12-02T09:50:42.269Z,8.55
2023-12-02T09:53:15.670Z,7.93
2023-12-02T09:55:45.599Z,6.97
2023-12-02T09:58:20.976Z,8.38
2023-12-02T10:00:52.184Z,8.15
2023-12-02T10:03:40.470Z,9.13
2023-12-02T10:06:17.510Z,7.93
2023-12-02T10:08:50.548Z,8.80
2023-12-02T10:11:24.196Z,9.32
2023-12-02T10:13:54.612Z,8.00
2023-12-02T10:16:22.996Z,8.40
2023-12-02T10:18:54.003Z,7.13
2023-12-02T10:21:23.200Z,8.02
2023-12-02T10:23:57.762Z,7.97
2023-12-02T10:26:27.195Z,8.20
2023-12-02T10:29:00.509Z,7.70
2023-12-02T10:31:29.982Z,6.93
2023-12-02T10:34:03.607Z,8.30
2023-12-02T10:36:34.612Z,6.97
2023-12-02T10:39:14.187Z,7.53
2023-12-02T10:41:46.683Z,7.47
2023-12-02T10:44:16.861Z,7.60
2023-12-02T10:46:45.058Z,8.65
2023-12-02T10:49:13.531Z,7.53
2023-12-02T10:51:43.773Z,7.18
2023-12-02T10:54:12.069Z,7.07
2023-12-02T10:56:40.945Z,8.60
2023-12-02T10:59:09.864Z,7.53
2023-12-02T11:01:39.677Z,9.88
2023-12-02T11:04:12.055Z,7.82
2023-12-02T11:06:41.912Z,8.57
2023-12-02T11:09:15.312Z,8.17
2023-12-02T11:11:48.900Z,7.45
2023-12-02T11:14:18.412Z,7.88
2023-12-02T11:16:49.990Z,9.30
2023-12-02T11:19:32.891Z,9.07
2023-12-02T11:22:11.116Z,8.67
2023-12-02T11:24:47.448Z,9.32
2023-12-02T11:27:21.719Z,8.63
2023-12-02T11:29:54.979Z,10.15
2023-12-02T11:32:30.148Z,7.93
2023-12-02T11:35:06.568Z,7.90
2023-12-02T11:37:38.954Z,8.02
2023-12-02T11:40:13.479Z,7.22
2023-12-02T11:42:43.337Z,6.50
2023-12-02T11:45:15.045Z,5.85
2023-12-02T11:47:48.600Z,7.90
2023-12-02T11:50:27.616Z,6.95
2023-12-02T11:53:05.312Z,6.47
2023-12-02T11:55:38.560Z,6.78
2023-12-02T11:58:13.581Z,6.78
2023-12-02T12:00:54.817Z,7.10
2023-12-02T12:03:35.257Z,7.45
2023-12-02T12:06:09.801Z,6.50
2023-12-02T12:08:42.218Z,6.80
2023-12-02T12:11:14.152Z,7.03
2023-12-02T12:13:41.862Z,7.60
2023-12-02T12:16:09.494Z,8.18
2023-12-02T12:18:37.399Z,7.10
2023-12-02T12:21:05.369Z,8.00
2023-12-02T12:23:33.385Z,7.40
2023-12-02T12:26:01.087Z,7.57
2023-12-02T12:28:30.020Z,8.48
2023-12-02T12:30:57.597Z,9.07
2023-12-02T12:33:25.295Z,8.23
2023-12-02T12:35:52.971Z,8.50
2023-12-02T12:38:22.697Z,8.80
2023-12-02T12:40:51.953Z,7.90
2023-12-02T12:43:19.788Z,8.82
2023-12-02T12:45:51.278Z,9.02
2023-12-02T12:48:24.659Z,8.68
2023-12-02T12:50:53.366Z,9.30
2023-12-02T12:53:24.135Z,9.60
2023-12-02T12:55:55.289Z,9.13
2023-12-02T12:58:25.383Z,9.68
2023-12-02T13:00:54.788Z,9.60
2023-12-02T13:03:29.145Z,8.87
2023-12-02T13:06:03.416Z,9.25
2023-12-02T13:08:31.648Z,8.20
2023-12-02T13:11:11.766Z,8.68
2023-12-02T13:13:45.145Z,8.35
2023-12-02T13:16:14.781Z,7.57
2023-12-02T13:18:42.476Z,7.65
2023-12-02T13:21:10.554Z,7.78
2023-12-02T13:23:38.818Z,8.73
2023-12-02T13:26:07.717Z,8.05
2023-12-02T13:28:39.113Z,7.47
2023-12-02T13:31:08.983Z,8.68
2023-12-02T13:33:42.542Z,9.27
2023-12-02T13:36:13.144Z,7.82
2023-12-02T13:38:43.437Z,7.45
2023-12-02T13:41:14.527Z,7.97
2023-12-02T13:43:47.780Z,7.95
2023-12-02T13:46:17.777Z,8.85
2023-12-02T13:48:50.742Z,7.47
2023-12-02T13:51:23.844Z,8.13
2023-12-02T13:53:59.791Z,7.47
2023-12-02T13:56:29.751Z,6.30
2023-12-02T13:59:07.613Z,8.27
2023-12-02T14:01:39.458Z,9.52
2023-12-02T14:04:14.495Z,8.70
2023-12-02T14:06:48.362Z,8.63
2023-12-02T14:09:18.602Z,7.18
2023-12-02T14:11:51.880Z,8.15
2023-12-02T14:14:30.756Z,7.20
2023-12-02T14:17:01.574Z,6.37
2023-12-02T14:19:42.518Z,7.15
2023-12-02T14:22:31.554Z,6.53
2023-12-02T14:25:20.749Z,5.85
2023-12-02T14:27:51.728Z,7.82
2023-12-02T14:30:36.712Z,6.37
2023-12-02T14:33:37.683Z,5.00
2023-12-02T14:36:10.793Z,6.18
2023-12-02T14:38:45.794Z,5.45
2023-12-02T14:41:20.849Z,5.05
2023-12-02T14:43:53.390Z,7.10
2023-12-02T14:46:22.419Z,6.50
2023-12-02T14:48:50.108Z,7.22
2023-12-02T14:51:19.279Z,6.50
2023-12-02T14:53:46.919Z,5.47
2023-12-02T14:56:32.983Z,6.50
2023-12-02T14:59:01.309Z,6.22
2023-12-02T15:01:32.298Z,5.13
2023-12-02T15:04:00.399Z,5.65
2023-12-02T15:06:29.984Z,6.50
2023-12-02T15:09:01.363Z,7.50
2023-12-02T15:11:33.622Z,6.35
2023-12-02T15:14:02.426Z,5.90
2023-12-02T15:16:30.597Z,5.68
2023-12-02T15:18:58.856Z,5.03
2023-12-02T15:21:26.561Z,5.87
2023-12-02T15:23:55.649Z,6.45
2023-12-02T15:26:23.342Z,6.10
2023-12-02T15:28:52.009Z,6.22
2023-12-02T15:31:27.108Z,6.85
2023-12-02T15:33:57.491Z,9.03
2023-12-02T15:36:26.445Z,9.93
2023-12-02T15:38:56.434Z,8.13
2023-12-02T15:41:24.687Z,9.20
2023-12-02T15:43:55.333Z,6.25
2023-12-02T15:46:23.566Z,7.50
2023-12-02T15:48:51.293Z,7.45
2023-12-02T15:51:20.187Z,6.63
2023-12-02T15:53:48.204Z,6.88
2023-12-02T15:56:18.415Z,6.47
2023-12-02T15:58:46.010Z,7.90
2023-12-02T16:01:15.252Z,8.32
2023-12-02T16:03:45.151Z,8.75
2023-12-02T16:06:13.678Z,7.88
2023-12-02T16:08:41.754Z,7.88
2023-12-02T16:11:10.411Z,7.83
2023-12-02T16:13:43.491Z,7.28
2023-12-02T16:16:12.967Z,7.43
2023-12-02T16:18:41.856Z,7.40
2023-12-02T16:21:11.001Z,6.50
2023-12-02T16:23:39.939Z,7.50
2023-12-02T16:26:08.554Z,9.25
2023-12-02T16:28:36.152Z,12.73
2023-12-02T16:31:05.539Z,8.68
2023-12-02T16:33:33.161Z,9.65
2023-12-02T16:36:01.428Z,10.77
2023-12-02T16:38:29.513Z,7.28
2023-12-02T16:40:57.732Z,9.45
2023-12-02T16:43:25.491Z,8.02
2023-12-02T16:45:56.052Z,7.63
2023-12-02T16:48:25.491Z,9.83
2023-12-02T16:50:54.217Z,7.32
2023-12-02T16:53:24.510Z,6.68
2023-12-02T16:55:56.263Z,7.13
2023-12-02T16:58:27.728Z,8.85
2023-12-02T17:00:56.325Z,7.30
2023-12-02T17:03:29.705Z,8.88
2023-12-02T17:06:05.580Z,8.07
2023-12-02T17:08:34.890Z,9.00
2023-12-02T17:11:03.924Z,8.00
2023-12-02T17:13:42.256Z,9.07
2023-12-02T17:16:24.702Z,9.70
2023-12-02T17:19:10.380Z,8.00
2023-12-02T17:21:49.117Z,8.52
2023-12-02T17:24:19.403Z,10.43
2023-12-02T17:26:47.065Z,8.13
2023-12-02T17:29:15.725Z,9.13
2023-12-02T17:31:43.292Z,6.88
2023-12-02T17:34:11.217Z,7.50
2023-12-02T17:36:38.876Z,8.02
2023-12-02T17:39:07.851Z,6.73
2023-12-02T17:41:35.427Z,7.13
2023-12-02T17:44:03.019Z,6.93
2023-12-02T17:46:30.765Z,6.93
2023-12-02T17:48:58.459Z,8.75
2023-12-02T17:51:26.471Z,8.30
2023-12-02T17:53:54.113Z,8.73
2023-12-02T17:56:23.546Z,11.45
2023-12-02T17:58:51.179Z,9.10
2023-12-02T18:01:18.753Z,13.05
2023-12-02T18:03:46.362Z,13.40
2023-12-02T18:06:14.463Z,14.80
2023-12-02T18:08:42.121Z,11.23
2023-12-02T18:11:10.464Z,11.95
2023-12-02T18:13:39.401Z,14.00
2023-12-02T18:16:07.552Z,11.77
2023-12-02T18:18:35.246Z,12.18
2023-12-02T18:21:02.924Z,11.95
2023-12-02T18:23:31.089Z,11.40
2023-12-02T18:25:58.753Z,12.20
2023-12-02T18:28:26.337Z,11.60
2023-12-02T18:30:55.392Z,7.97
2023-12-02T18:33:23.181Z,10.35
2023-12-02T18:35:51.189Z,11.32
2023-12-02T18:38:18.788Z,9.73
2023-12-02T18:40:46.372Z,10.77
2023-12-02T18:43:13.959Z,12.52
2023-12-02T18:45:41.572Z,7.97
2023-12-02T18:48:10.889Z,9.68
2023-12-02T18:50:38.513Z,7.88
2023-12-02T18:53:06.125Z,9.17
2023-12-02T18:55:33.680Z,8.27
2023-12-02T18:58:01.258Z,9.48
2023-12-02T19:00:28.891Z,8.45
2023-12-02T19:02:56.508Z,9.57
2023-12-02T19:05:25.567Z,11.60
2023-12-02T19:07:53.180Z,8.98
2023-12-02T19:10:22.299Z,8.20
2023-12-02T19:12:49.946Z,9.20
2023-12-02T19:15:17.977Z,12.40
2023-12-02T19:17:45.733Z,7.37
2023-12-02T19:20:13.601Z,11.38
2023-12-02T19:22:42.547Z,10.98
2023-12-02T19:25:10.362Z,10.30
2023-12-02T19:27:38.259Z,42.90
2023-12-02T19:30:06.410Z,21.07
2023-12-02T19:32:34.165Z,25.52
2023-12-02T19:35:02.209Z,30.38
2023-12-02T19:37:29.777Z,15.88
2023-12-02T19:40:00.021Z,11.80
2023-12-02T19:42:27.668Z,19.13
2023-12-02T19:44:55.284Z,11.52
2023-12-02T19:47:23.135Z,17.17
2023-12-02T19:49:50.765Z,13.73
2023-12-02T19:52:18.440Z,17.67
2023-12-02T19:54:46.085Z,18.67
2023-12-02T19:57:15.069Z,20.77
2023-12-02T19:59:42.682Z,21.17
2023-12-02T20:02:10.380Z,22.42
2023-12-02T20:04:38.085Z,22.83
2023-12-02T20:07:06.130Z,20.33
2023-12-02T20:09:33.710Z,18.23
2023-12-02T20:12:01.349Z,18.02
2023-12-02T20:14:30.305Z,20.55
2023-12-02T20:16:58.003Z,19.42
2023-12-02T20:19:25.652Z,24.97
2023-12-02T20:21:53.254Z,19.70
2023-12-02T20:24:20.937Z,16.85
2023-12-02T20:26:48.587Z,16.08
2023-12-02T20:29:16.164Z,16.13
2023-12-02T20:31:45.114Z,18.23
2023-12-02T20:34:12.829Z,14.20
2023-12-02T20:36:40.506Z,15.55
2023-12-02T20:39:09.690Z,15.95
2023-12-02T20:41:37.666Z,12.13
2023-12-02T20:44:06.602Z,14.80
2023-12-02T20:46:34.192Z,11.88
2023-12-02T20:49:03.176Z,17.13
2023-12-02T20:51:32.293Z,19.95
2023-12-02T20:54:00.046Z,22.23
2023-12-02T20:56:27.780Z,24.00
2023-12-02T20:58:55.337Z,19.83
2023-12-02T21:01:22.846Z,22.38
2023-12-02T21:03:50.535Z,27.27
2023-12-02T21:06:19.534Z,24.88
2023-12-02T21:08:49.658Z,24.97
2023-12-02T21:11:17.303Z,23.73
2023-12-02T21:13:46.177Z,20.38
2023-12-02T21:16:13.757Z,22.60
2023-12-02T21:18:41.482Z,24.17
2023-12-02T21:21:09.667Z,21.20
2023-12-02T21:23:38.718Z,23.00
2023-12-02T21:26:06.897Z,16.90
2023-12-02T21:28:34.550Z,20.50
2023-12-02T21:31:03.038Z,21.63
2023-12-02T21:33:34.744Z,18.37
2023-12-02T21:36:02.653Z,16.30
2023-12-02T21:38:42.342Z,19.73
2023-12-02T21:41:13.554Z,17.13
2023-12-02T21:43:44.720Z,20.63
2023-12-02T21:46:20.708Z,18.67
2023-12-02T21:48:50.526Z,14.27
2023-12-02T21:51:23.294Z,16.90
2023-12-02T21:53:53.162Z,21.05
2023-12-02T21:56:22.107Z,17.52
2023-12-02T21:58:55.161Z,16.07
2023-12-02T22:01:22.730Z,18.70
2023-12-02T22:03:50.400Z,16.98
2023-12-02T22:06:39.153Z,13.15
2023-12-02T22:09:07.713Z,17.42
2023-12-02T22:11:39.938Z,14.07
2023-12-02T22:14:13.756Z,18.15
2023-12-02T22:16:42.303Z,12.30
2023-12-02T22:19:09.893Z,11.25
2023-12-02T22:21:37.550Z,15.68
2023-12-02T22:24:05.603Z,19.20
2023-12-02T22:26:33.920Z,16.75
2023-12-02T22:29:04.768Z,15.32
2023-12-02T22:31:33.573Z,19.27
2023-12-02T22:34:07.421Z,13.23
2023-12-02T22:36:40.270Z,17.23
2023-12-02T22:39:11.613Z,16.88
2023-12-02T22:41:40.234Z,12.90
2023-12-02T22:44:09.190Z,16.15
2023-12-02T22:46:36.760Z,15.13
2023-12-02T22:49:05.253Z,19.50
2023-12-02T22:51:35.929Z,11.68
2023-12-02T22:54:04.492Z,14.25
2023-12-02T22:56:33.769Z,10.95
2023-12-02T22:59:01.885Z,15.45
2023-12-02T23:01:33.457Z,13.70
2023-12-02T23:04:05.151Z,13.82
2023-12-02T23:06:33.071Z,14.73
2023-12-02T23:09:07.217Z,14.65
2023-12-02T23:11:50.000Z,17.27
2023-12-02T23:14:31.351Z,14.43
2023-12-02T23:17:00.322Z,14.95
2023-12-02T23:19:31.218Z,15.18
2023-12-02T23:21:58.824Z,14.05
2023-12-02T23:24:26.392Z,19.63
2023-12-02T23:26:53.983Z,17.20
2023-12-02T23:29:21.592Z,14.70
2023-12-02T23:31:49.152Z,18.38
2023-12-02T23:34:18.277Z,16.38
2023-12-02T23:36:45.939Z,14.25
2023-12-02T23:39:24.282Z,13.13
2023-12-02T23:41:51.883Z,16.92
2023-12-02T23:44:30.419Z,16.83
2023-12-02T23:46:59.967Z,10.05
2023-12-02T23:49:28.979Z,14.30
2023-12-02T23:51:56.818Z,12.10
2023-12-02T23:54:24.427Z,14.55
2023-12-02T23:56:52.052Z,20.15
2023-12-02T23:59:19.772Z,9.48
